createdAt,value
2023-03-03T00:01:50.585Z,13.32
2023-03-03T00:04:21.332Z,12.90
2023-03-03T00:06:50.867Z,13.48
2023-03-03T00:09:20.430Z,14.23
2023-03-03T00:11:59.250Z,15.02
2023-03-03T00:14:32.206Z,16.75
2023-03-03T00:17:14.280Z,16.90
2023-03-03T00:19:47.540Z,16.20
2023-03-03T00:22:23.910Z,16.40
2023-03-03T00:24:53.199Z,17.55
2023-03-03T00:27:31.325Z,14.75
2023-03-03T00:30:01.404Z,13.73
2023-03-03T00:32:39.918Z,15.20
2023-03-03T00:35:26.115Z,15.60
2023-03-03T00:37:58.510Z,13.90
2023-03-03T00:40:33.083Z,13.85
2023-03-03T00:43:03.712Z,11.13
2023-03-03T00:45:39.841Z,13.02
2023-03-03T00:48:28.487Z,12.65
2023-03-03T00:51:00.548Z,11.32
2023-03-03T00:53:31.925Z,11.15
2023-03-03T00:56:01.331Z,11.80
2023-03-03T00:58:31.216Z,10.70
2023-03-03T01:01:00.638Z,10.73
2023-03-03T01:03:40.347Z,10.20
2023-03-03T01:06:11.999Z,10.10
2023-03-03T01:08:41.689Z,9.43
2023-03-03T01:11:16.316Z,9.93
2023-03-03T01:13:49.637Z,8.07
2023-03-03T01:16:19.519Z,8.75
2023-03-03T01:18:49.406Z,8.85
2023-03-03T01:21:20.202Z,9.35
2023-03-03T01:23:49.798Z,9.73
2023-03-03T01:26:19.101Z,7.28
2023-03-03T01:28:48.819Z,8.20
2023-03-03T01:31:19.784Z,8.02
2023-03-03T01:33:49.658Z,7.13
2023-03-03T01:36:25.321Z,8.90
2023-03-03T01:41:23.941Z,6.68
2023-03-03T01:43:53.403Z,7.32
2023-03-03T01:46:44.492Z,7.18
2023-03-03T01:49:20.631Z,6.57
2023-03-03T01:54:29.474Z,5.93
2023-03-03T01:57:04.219Z,6.68
2023-03-03T01:59:38.740Z,6.82
2023-03-03T02:02:09.218Z,6.10
2023-03-03T02:04:39.464Z,6.70
2023-03-03T02:07:12.337Z,5.72
2023-03-03T02:09:52.840Z,6.35
2023-03-03T02:12:32.378Z,6.90
2023-03-03T02:15:02.063Z,6.10
2023-03-03T02:17:31.445Z,6.22
2023-03-03T02:20:08.801Z,6.20
2023-03-03T02:22:46.535Z,6.82
2023-03-03T02:25:23.674Z,6.82
2023-03-03T02:27:56.522Z,6.03
2023-03-03T02:30:26.642Z,5.43
2023-03-03T02:32:56.132Z,5.93
2023-03-03T02:35:31.668Z,6.75
2023-03-03T02:38:10.989Z,6.45
2023-03-03T02:40:48.885Z,7.40
2023-03-03T02:43:23.931Z,7.25
2023-03-03T02:45:53.747Z,7.88
2023-03-03T02:48:23.229Z,9.00
2023-03-03T02:50:52.800Z,8.38
2023-03-03T02:53:22.179Z,9.20
2023-03-03T02:55:51.869Z,8.43
2023-03-03T02:58:22.727Z,7.32
2023-03-03T03:00:52.393Z,6.63
2023-03-03T03:03:24.983Z,7.00
2023-03-03T03:05:55.333Z,6.93
2023-03-03T03:08:26.252Z,6.43
2023-03-03T03:10:57.628Z,7.07
2023-03-03T03:13:31.195Z,6.43
2023-03-03T03:16:01.426Z,6.13
2023-03-03T03:18:32.214Z,6.22
2023-03-03T03:21:09.020Z,6.90
2023-03-03T03:23:38.679Z,6.40
2023-03-03T03:26:09.362Z,7.53
2023-03-03T03:28:40.471Z,6.53
2023-03-03T03:36:23.444Z,7.97
2023-03-03T03:38:53.938Z,5.93
2023-03-03T03:41:24.772Z,5.70
2023-03-03T03:43:55.708Z,6.68
2023-03-03T03:46:25.363Z,6.55
2023-03-03T03:48:55.232Z,5.47
2023-03-03T03:51:24.662Z,5.85
2023-03-03T03:53:54.238Z,5.95
2023-03-03T03:56:23.596Z,5.60
2023-03-03T03:58:58.115Z,5.57
2023-03-03T04:01:27.727Z,5.90
2023-03-03T04:03:57.482Z,4.68
2023-03-03T04:06:27.346Z,5.35
2023-03-03T04:08:57.584Z,5.82
2023-03-03T04:11:28.519Z,5.63
2023-03-03T04:13:59.865Z,6.82
2023-03-03T04:16:29.595Z,5.40
2023-03-03T04:18:59.397Z,6.57
2023-03-03T04:21:29.250Z,5.43
2023-03-03T04:24:01.780Z,5.85
2023-03-03T04:26:32.313Z,5.40
2023-03-03T04:29:05.898Z,5.53
2023-03-03T04:31:35.520Z,5.03
2023-03-03T04:34:06.752Z,5.78
2023-03-03T04:36:36.088Z,6.10
2023-03-03T04:39:05.873Z,5.97
2023-03-03T04:41:35.410Z,6.85
2023-03-03T04:44:07.582Z,5.30
2023-03-03T04:46:37.084Z,5.60
2023-03-03T04:49:10.798Z,6.18
2023-03-03T04:51:41.484Z,6.13
2023-03-03T04:54:11.196Z,6.68
2023-03-03T04:56:40.435Z,6.88
2023-03-03T04:59:12.052Z,7.15
2023-03-03T05:01:42.051Z,6.05
2023-03-03T05:04:12.396Z,6.40
2023-03-03T05:06:41.937Z,7.18
2023-03-03T05:09:11.592Z,7.22
2023-03-03T05:11:40.826Z,6.68
2023-03-03T05:14:12.554Z,6.40
2023-03-03T05:16:42.207Z,6.45
2023-03-03T05:19:11.939Z,6.28
2023-03-03T05:21:42.934Z,5.90
2023-03-03T05:24:14.039Z,7.30
2023-03-03T05:26:43.738Z,5.38
2023-03-03T05:29:14.742Z,6.50
2023-03-03T05:31:45.628Z,6.72
2023-03-03T05:34:15.510Z,6.28
2023-03-03T05:36:44.837Z,6.32
2023-03-03T05:39:14.525Z,6.38
2023-03-03T05:41:43.984Z,6.20
2023-03-03T05:44:14.999Z,6.07
2023-03-03T05:46:44.592Z,6.18
2023-03-03T05:49:14.136Z,6.50
2023-03-03T05:51:43.368Z,5.88
2023-03-03T05:54:13.163Z,6.28
2023-03-03T05:56:42.517Z,6.90
2023-03-03T05:59:13.474Z,7.53
2023-03-03T06:01:42.944Z,6.07
2023-03-03T06:04:12.567Z,6.68
2023-03-03T06:06:42.184Z,6.95
2023-03-03T06:09:11.986Z,6.10
2023-03-03T06:11:41.341Z,6.63
2023-03-03T06:14:10.797Z,5.68
2023-03-03T06:16:41.503Z,6.03
2023-03-03T06:19:11.236Z,5.32
2023-03-03T06:21:40.602Z,7.22
2023-03-03T06:24:10.511Z,6.13
2023-03-03T06:26:39.793Z,6.13
2023-03-03T06:29:09.770Z,6.60
2023-03-03T06:31:40.550Z,6.13
2023-03-03T06:34:10.366Z,5.40
2023-03-03T06:36:39.619Z,5.93
2023-03-03T06:39:09.174Z,5.93
2023-03-03T06:41:38.673Z,5.25
2023-03-03T06:44:08.195Z,4.75
2023-03-03T06:46:37.524Z,5.63
2023-03-03T06:49:08.681Z,5.00
2023-03-03T06:51:40.055Z,4.78
2023-03-03T06:54:14.423Z,5.93
2023-03-03T06:56:44.951Z,5.07
2023-03-03T06:59:16.244Z,5.18
2023-03-03T07:01:46.964Z,5.55
2023-03-03T07:04:28.884Z,5.80
2023-03-03T07:07:00.106Z,5.78
2023-03-03T07:09:31.000Z,4.60
2023-03-03T07:12:07.928Z,5.35
2023-03-03T07:14:43.462Z,4.90
2023-03-03T07:17:18.093Z,5.97
2023-03-03T07:19:50.111Z,5.00
2023-03-03T07:22:22.098Z,4.95
2023-03-03T07:24:53.782Z,5.70
2023-03-03T07:27:27.061Z,5.47
2023-03-03T07:30:02.756Z,5.88
2023-03-03T07:32:40.573Z,4.80
2023-03-03T07:35:31.157Z,5.50
2023-03-03T07:38:01.310Z,5.50
2023-03-03T07:40:38.479Z,6.05
2023-03-03T07:43:36.160Z,5.22
2023-03-03T07:46:22.924Z,4.93
2023-03-03T07:48:53.556Z,5.57
2023-03-03T07:51:27.619Z,7.00
2023-03-03T07:54:16.126Z,6.60
2023-03-03T07:56:45.777Z,5.28
2023-03-03T07:59:23.019Z,7.32
2023-03-03T08:01:55.433Z,6.82
2023-03-03T08:04:29.954Z,6.18
2023-03-03T08:07:03.412Z,6.95
2023-03-03T08:09:43.847Z,5.18
2023-03-03T08:12:35.357Z,5.35
2023-03-03T08:15:21.549Z,5.95
2023-03-03T08:17:52.706Z,6.03
2023-03-03T08:20:53.631Z,5.63
2023-03-03T08:23:25.294Z,5.72
2023-03-03T08:25:55.314Z,6.15
2023-03-03T08:28:25.364Z,5.97
2023-03-03T08:31:08.941Z,5.85
2023-03-03T08:33:44.804Z,5.53
2023-03-03T08:36:15.006Z,6.13
2023-03-03T08:38:46.271Z,5.32
2023-03-03T08:41:15.782Z,4.90
2023-03-03T08:43:45.826Z,5.50
2023-03-03T08:46:15.320Z,5.45
2023-03-03T08:48:45.212Z,6.97
2023-03-03T08:51:14.472Z,5.95
2023-03-03T08:53:45.450Z,6.43
2023-03-03T08:56:14.863Z,6.82
2023-03-03T08:59:01.289Z,7.63
2023-03-03T09:01:32.421Z,6.05
2023-03-03T09:04:02.040Z,6.70
2023-03-03T09:06:31.413Z,5.88
2023-03-03T09:09:02.953Z,6.75
2023-03-03T09:11:32.770Z,5.72
2023-03-03T09:14:08.627Z,5.55
2023-03-03T09:16:41.035Z,6.75
2023-03-03T09:19:25.277Z,5.88
2023-03-03T09:21:55.920Z,5.72
2023-03-03T09:24:31.653Z,5.53
2023-03-03T09:27:01.485Z,5.88
2023-03-03T09:29:32.514Z,6.32
2023-03-03T09:32:09.975Z,6.50
2023-03-03T09:34:41.831Z,5.97
2023-03-03T09:37:23.159Z,5.78
2023-03-03T09:39:56.005Z,6.15
2023-03-03T09:42:43.018Z,5.57
2023-03-03T09:45:31.874Z,6.28
2023-03-03T09:48:23.853Z,6.72
2023-03-03T09:51:12.246Z,7.43
2023-03-03T09:54:05.473Z,7.82
2023-03-03T09:56:43.521Z,6.75
2023-03-03T09:59:29.845Z,6.85
2023-03-03T10:02:25.826Z,7.28
2023-03-03T10:05:20.738Z,6.82
2023-03-03T10:08:02.036Z,6.90
2023-03-03T10:10:52.087Z,7.07
2023-03-03T10:13:34.829Z,6.95
2023-03-03T10:16:23.967Z,7.85
2023-03-03T10:18:59.753Z,7.20
2023-03-03T10:21:37.296Z,7.57
2023-03-03T10:24:22.092Z,6.72
2023-03-03T10:27:13.845Z,6.60
2023-03-03T10:29:59.507Z,6.65
2023-03-03T10:32:41.090Z,6.82
2023-03-03T10:35:26.140Z,6.85
2023-03-03T10:38:14.697Z,6.78
2023-03-03T10:40:52.742Z,6.35
2023-03-03T10:43:42.964Z,6.50
2023-03-03T10:46:38.370Z,7.95
2023-03-03T10:49:24.018Z,7.77
2023-03-03T10:52:19.365Z,6.85
2023-03-03T10:55:23.246Z,6.85
2023-03-03T10:58:04.136Z,5.47
2023-03-03T11:00:40.257Z,6.90
2023-03-03T11:03:40.090Z,7.07
2023-03-03T11:06:15.817Z,6.30
2023-03-03T11:08:51.482Z,5.60
2023-03-03T11:11:27.736Z,5.40
2023-03-03T11:14:05.218Z,5.47
2023-03-03T11:16:45.192Z,5.90
2023-03-03T11:19:32.111Z,5.90
2023-03-03T11:22:15.921Z,5.78
2023-03-03T11:24:56.222Z,5.07
2023-03-03T11:27:53.868Z,5.38
2023-03-03T11:30:38.082Z,5.45
2023-03-03T11:33:11.186Z,4.72
2023-03-03T11:35:47.670Z,5.18
2023-03-03T11:38:32.876Z,8.55
2023-03-03T11:41:09.575Z,5.35
2023-03-03T11:43:44.010Z,5.18
2023-03-03T11:46:17.685Z,4.53
2023-03-03T11:48:55.399Z,4.82
2023-03-03T11:51:35.618Z,4.45
2023-03-03T11:54:16.845Z,4.28
2023-03-03T11:56:48.728Z,4.50
2023-03-03T11:59:45.857Z,3.95
2023-03-03T12:02:29.228Z,3.60
2023-03-03T12:05:07.747Z,3.72
2023-03-03T12:07:46.139Z,3.50
2023-03-03T12:10:25.972Z,3.03
2023-03-03T12:13:04.045Z,3.33
2023-03-03T12:15:42.802Z,2.90
2023-03-03T12:18:36.294Z,2.75
2023-03-03T12:21:30.844Z,2.50
2023-03-03T12:24:31.122Z,2.92
2023-03-03T12:27:12.817Z,2.00
2023-03-03T12:29:51.382Z,2.60
2023-03-03T12:32:35.958Z,2.15
2023-03-03T12:35:13.473Z,2.47
2023-03-03T12:37:49.404Z,2.28
2023-03-03T12:40:22.037Z,2.00
2023-03-03T12:43:07.979Z,2.15
2023-03-03T12:45:45.362Z,2.20
2023-03-03T12:48:19.230Z,2.00
2023-03-03T12:51:00.500Z,1.92
2023-03-03T12:53:52.262Z,1.90
2023-03-03T12:56:31.401Z,1.98
2023-03-03T12:59:06.170Z,2.08
2023-03-03T13:01:44.529Z,2.00
2023-03-03T13:04:27.257Z,1.70
2023-03-03T13:07:03.880Z,1.80
2023-03-03T13:09:45.336Z,1.70
2023-03-03T13:12:33.839Z,1.67
2023-03-03T13:15:16.363Z,2.03
2023-03-03T13:18:01.134Z,2.30
2023-03-03T13:23:14.911Z,1.50
2023-03-03T13:25:54.399Z,2.15
2023-03-03T13:28:32.623Z,2.30
2023-03-03T13:31:10.912Z,1.60
2023-03-03T13:33:41.875Z,3.05
2023-03-03T13:36:13.783Z,1.90
2023-03-03T13:38:48.654Z,1.90
2023-03-03T13:41:24.869Z,2.10
2023-03-03T13:43:58.638Z,2.10
2023-03-03T13:46:41.846Z,1.65
2023-03-03T13:49:26.125Z,2.30
2023-03-03T13:52:01.926Z,2.37
2023-03-03T13:54:49.476Z,2.35
2023-03-03T13:57:37.712Z,1.90
2023-03-03T14:00:17.342Z,3.10
2023-03-03T14:03:18.343Z,1.80
2023-03-03T14:05:50.113Z,1.30
2023-03-03T14:08:35.104Z,1.88
2023-03-03T14:11:12.834Z,2.30
2023-03-03T14:13:55.941Z,1.50
2023-03-03T14:16:46.747Z,1.55
2023-03-03T14:19:25.250Z,2.38
2023-03-03T14:22:07.149Z,1.70
2023-03-03T14:25:08.502Z,2.45
2023-03-03T14:27:41.460Z,2.13
2023-03-03T14:30:42.316Z,2.20
2023-03-03T14:33:25.744Z,2.50
2023-03-03T14:36:16.053Z,2.72
2023-03-03T14:38:48.373Z,2.22
2023-03-03T14:41:41.818Z,2.10
2023-03-03T14:44:28.353Z,1.80
2023-03-03T14:47:19.298Z,2.33
2023-03-03T14:49:49.288Z,2.92
2023-03-03T14:52:25.435Z,2.10
2023-03-03T14:54:57.118Z,2.10
2023-03-03T14:57:46.635Z,2.17
2023-03-03T15:00:34.682Z,2.75
2023-03-03T15:03:19.863Z,2.95
2023-03-03T15:05:53.636Z,2.35
2023-03-03T15:08:33.138Z,2.53
2023-03-03T15:11:21.561Z,2.28
2023-03-03T15:13:52.425Z,2.97
2023-03-03T15:16:26.258Z,2.75
2023-03-03T15:19:20.383Z,2.88
2023-03-03T15:22:01.230Z,2.95
2023-03-03T15:24:41.518Z,2.80
2023-03-03T15:27:20.458Z,3.15
2023-03-03T15:30:03.530Z,3.08
2023-03-03T15:32:42.322Z,3.15
2023-03-03T15:35:25.973Z,3.45
2023-03-03T15:38:04.251Z,3.85
2023-03-03T15:40:41.423Z,4.22
2023-03-03T15:43:23.117Z,3.72
2023-03-03T15:46:03.809Z,4.90
2023-03-03T15:48:47.398Z,5.57
2023-03-03T15:51:32.120Z,3.70
2023-03-03T15:54:24.106Z,3.70
2023-03-03T15:56:58.542Z,3.78
2023-03-03T15:59:46.477Z,4.10
2023-03-03T16:02:22.762Z,3.72
2023-03-03T16:05:01.559Z,4.57
2023-03-03T16:07:44.050Z,4.70
2023-03-03T16:10:26.281Z,4.45
2023-03-03T16:13:04.592Z,4.43
2023-03-03T16:15:46.818Z,4.20
2023-03-03T16:18:29.576Z,4.25
2023-03-03T16:21:20.391Z,9.95
2023-03-03T16:23:51.478Z,6.10
2023-03-03T16:26:38.274Z,6.03
2023-03-03T16:29:35.540Z,5.32
2023-03-03T16:32:13.022Z,5.20
2023-03-03T16:34:55.642Z,4.78
2023-03-03T16:37:31.752Z,4.15
2023-03-03T16:40:12.135Z,4.10
2023-03-03T16:42:41.876Z,5.20
2023-03-03T16:45:34.669Z,6.57
2023-03-03T16:48:27.339Z,4.78
2023-03-03T16:51:15.407Z,4.32
2023-03-03T16:53:55.937Z,4.53
2023-03-03T16:56:29.896Z,5.82
2023-03-03T16:59:18.730Z,5.07
2023-03-03T17:02:00.442Z,5.10
2023-03-03T17:04:41.245Z,4.82
2023-03-03T17:07:23.582Z,5.30
2023-03-03T17:10:18.076Z,4.57
2023-03-03T17:13:13.275Z,5.57
2023-03-03T17:15:54.086Z,5.90
2023-03-03T17:18:38.478Z,6.03
2023-03-03T17:21:17.463Z,5.82
2023-03-03T17:24:04.722Z,4.78
2023-03-03T17:26:58.587Z,5.95
2023-03-03T17:29:40.367Z,6.05
2023-03-03T17:32:28.269Z,6.18
2023-03-03T17:35:17.421Z,5.63
2023-03-03T17:37:55.177Z,6.22
2023-03-03T17:40:42.197Z,6.72
2023-03-03T17:43:16.810Z,6.13
2023-03-03T17:45:49.859Z,7.22
2023-03-03T17:48:55.866Z,9.82
2023-03-03T17:51:56.745Z,7.70
2023-03-03T17:54:44.373Z,7.55
2023-03-03T17:57:30.293Z,7.75
2023-03-03T18:00:15.648Z,6.07
2023-03-03T18:03:10.420Z,10.63
2023-03-03T18:06:04.924Z,5.63
2023-03-03T18:09:13.019Z,6.28
2023-03-03T18:12:00.231Z,6.22
2023-03-03T18:14:55.087Z,7.03
2023-03-03T18:17:52.340Z,9.40
2023-03-03T18:20:37.947Z,6.63
2023-03-03T18:23:41.633Z,7.50
2023-03-03T18:26:35.341Z,11.23
2023-03-03T18:29:29.871Z,13.20
2023-03-03T18:32:21.066Z,8.60
2023-03-03T18:35:10.663Z,8.20
2023-03-03T18:37:45.249Z,8.18
2023-03-03T18:40:29.551Z,8.07
2023-03-03T18:42:58.861Z,7.68
2023-03-03T18:45:51.917Z,7.53
2023-03-03T18:48:51.020Z,7.20
2023-03-03T18:51:52.384Z,7.97
2023-03-03T18:54:31.285Z,8.85
2023-03-03T18:57:19.640Z,8.80
2023-03-03T19:00:09.150Z,7.32
2023-03-03T19:02:49.722Z,6.90
2023-03-03T19:05:24.512Z,6.40
2023-03-03T19:08:02.826Z,5.82
2023-03-03T19:10:55.615Z,6.40
2023-03-03T19:13:47.072Z,7.10
2023-03-03T19:16:36.885Z,8.25
2023-03-03T19:19:15.657Z,6.38
2023-03-03T19:21:51.326Z,6.47
2023-03-03T19:24:34.590Z,6.32
2023-03-03T19:27:33.145Z,6.82
2023-03-03T19:30:55.433Z,7.57
2023-03-03T19:33:42.012Z,6.32
2023-03-03T19:36:45.728Z,6.95
2023-03-03T19:40:01.119Z,8.02
2023-03-03T19:42:45.022Z,8.10
2023-03-03T19:45:27.784Z,7.93
2023-03-03T19:48:07.653Z,7.82
2023-03-03T19:50:47.116Z,8.18
2023-03-03T19:53:32.706Z,8.15
2023-03-03T19:56:25.945Z,9.07
2023-03-03T19:59:17.970Z,7.50
2023-03-03T20:02:27.019Z,7.95
2023-03-03T20:05:09.600Z,8.10
2023-03-03T20:07:46.187Z,7.10
2023-03-03T20:10:36.788Z,7.95
2023-03-03T20:13:19.913Z,6.95
2023-03-03T20:15:57.848Z,6.60
2023-03-03T20:18:49.201Z,7.28
2023-03-03T20:21:29.702Z,7.60
2023-03-03T20:24:22.986Z,7.78
2023-03-03T20:27:01.369Z,7.32
2023-03-03T20:29:55.974Z,7.45
2023-03-03T20:32:37.836Z,7.78
2023-03-03T20:35:21.182Z,7.43
2023-03-03T20:38:00.426Z,7.43
2023-03-03T20:40:38.886Z,7.68
2023-03-03T20:43:21.535Z,10.10
2023-03-03T20:46:04.517Z,8.68
2023-03-03T20:49:02.267Z,7.38
2023-03-03T20:51:41.358Z,8.68
2023-03-03T20:54:22.515Z,7.60
2023-03-03T20:56:57.057Z,7.03
2023-03-03T20:59:33.666Z,6.43
2023-03-03T21:02:15.461Z,6.88
2023-03-03T21:04:46.294Z,7.28
2023-03-03T21:07:27.235Z,6.78
2023-03-03T21:10:16.718Z,7.05
2023-03-03T21:12:46.007Z,6.45
2023-03-03T21:15:29.532Z,6.35
2023-03-03T21:18:01.025Z,6.43
2023-03-03T21:20:34.309Z,7.20
2023-03-03T21:23:04.773Z,7.15
2023-03-03T21:25:53.287Z,7.13
2023-03-03T21:28:25.857Z,6.45
2023-03-03T21:31:11.104Z,6.25
2023-03-03T21:33:47.128Z,5.47
2023-03-03T21:36:18.310Z,6.07
2023-03-03T21:38:48.869Z,6.32
2023-03-03T21:41:19.191Z,6.47
2023-03-03T21:43:50.933Z,6.07
2023-03-03T21:46:22.003Z,5.93
2023-03-03T21:48:53.419Z,6.35
2023-03-03T21:51:24.521Z,7.47
2023-03-03T21:53:54.066Z,6.55
2023-03-03T21:56:23.868Z,6.88
2023-03-03T21:58:53.111Z,7.05
2023-03-03T22:01:24.159Z,6.32
2023-03-03T22:03:54.914Z,6.85
2023-03-03T22:06:25.010Z,7.07
2023-03-03T22:08:54.354Z,6.88
2023-03-03T22:11:24.184Z,7.13
2023-03-03T22:13:53.510Z,6.50
2023-03-03T22:16:23.328Z,6.07
2023-03-03T22:18:54.178Z,5.80
2023-03-03T22:21:23.955Z,10.65
2023-03-03T22:23:53.658Z,6.18
2023-03-03T22:26:23.471Z,6.78
2023-03-03T22:28:53.078Z,7.55
2023-03-03T22:31:22.989Z,6.95
2023-03-03T22:33:53.845Z,7.70
2023-03-03T22:36:23.537Z,5.72
2023-03-03T22:38:53.128Z,7.35
2023-03-03T22:41:23.153Z,7.07
2023-03-03T22:43:52.512Z,9.40
2023-03-03T22:46:22.332Z,7.22
2023-03-03T22:48:51.582Z,6.03
2023-03-03T22:51:22.681Z,7.75
2023-03-03T22:53:51.982Z,8.93
2023-03-03T22:56:21.723Z,6.75
2023-03-03T22:58:51.546Z,5.68
2023-03-03T23:01:21.240Z,7.45
2023-03-03T23:03:51.286Z,6.57
2023-03-03T23:06:22.239Z,7.05
2023-03-03T23:08:51.521Z,8.50
2023-03-03T23:11:21.787Z,8.25
2023-03-03T23:13:51.143Z,7.07
2023-03-03T23:16:21.052Z,7.13
2023-03-03T23:18:50.369Z,6.20
2023-03-03T23:21:21.339Z,7.65
2023-03-03T23:23:50.660Z,7.18
2023-03-03T23:26:20.284Z,7.13
2023-03-03T23:28:49.705Z,8.35
2023-03-03T23:31:19.276Z,7.32
2023-03-03T23:33:48.518Z,6.80
2023-03-03T23:36:18.239Z,7.70
2023-03-03T23:38:49.202Z,7.47
2023-03-03T23:41:18.850Z,6.80
2023-03-03T23:43:48.187Z,8.10
2023-03-03T23:46:17.988Z,7.93
2023-03-03T23:48:47.330Z,8.82
2023-03-03T23:51:17.064Z,8.00
2023-03-03T23:53:46.470Z,7.55
2023-03-03T23:56:17.456Z,7.95
2023-03-03T23:58:46.811Z,7.57
